Time;durP1;ratioP1;P1;durP2;ratioP2;P2;SDS_P1;SDS_P2;PMS_P1;PMS_P2;Temp;Humidity;BMP_temperature;BMP_pressure;BME280_temperature;BME280_humidity;BME280_pressure;Samples;Min_cycle;Max_cycle;Signal;HPM_P1;HPM_P2
2021/12/15 00:02:04;;;;;;;115.78;35.85;;;;;;;8.30;96.96;102923.25;5033101;28;20079;-75
2021/12/15 00:04:34;;;;;;;110.43;33.78;;;;;;;8.30;97.03;102923.25;5069738;28;20165;-75
2021/12/15 00:07:01;;;;;;;115.10;35.78;;;;;;;8.29;97.17;102927.50;5031979;28;20025;-75
2021/12/15 00:09:29;;;;;;;108.15;34.47;;;;;;;8.29;97.36;102924.91;5039983;28;20255;-75
2021/12/15 00:11:55;;;;;;;112.38;34.85;;;;;;;8.28;97.15;102917.91;5062849;28;20014;-75
2021/12/15 00:14:21;;;;;;;107.10;34.75;;;;;;;8.28;97.58;102923.09;5049550;28;20166;-75
2021/12/15 00:16:48;;;;;;;103.05;32.63;;;;;;;8.28;97.36;102917.91;5051211;28;20020;-75
2021/12/15 00:19:13;;;;;;;114.43;35.40;;;;;;;8.27;97.36;102915.22;5048337;28;20017;-75
2021/12/15 00:21:39;;;;;;;122.63;35.20;;;;;;;8.27;97.53;102912.63;5044596;28;20086;-75
2021/12/15 00:24:06;;;;;;;108.13;33.80;;;;;;;8.26;97.65;102916.03;5041838;28;20257;-75
2021/12/15 00:26:32;;;;;;;114.85;34.83;;;;;;;8.26;97.70;102914.31;5046050;28;20024;-75
2021/12/15 00:28:58;;;;;;;111.05;34.83;;;;;;;8.26;97.71;102913.44;5042920;28;20016;-75
2021/12/15 00:31:23;;;;;;;110.70;34.53;;;;;;;8.26;97.72;102916.03;5049491;28;20175;-75
2021/12/15 00:33:49;;;;;;;109.88;33.47;;;;;;;8.27;97.81;102912.63;5049331;28;20013;-75
2021/12/15 00:36:16;;;;;;;121.35;35.45;;;;;;;8.26;97.77;102916.03;5045804;28;20032;-75
2021/12/15 00:38:42;;;;;;;115.47;35.30;;;;;;;8.26;97.71;102910.84;5054878;28;20039;-75
2021/12/15 00:41:08;;;;;;;118.70;34.53;;;;;;;8.27;97.64;102907.41;5055222;28;20028;-75
2021/12/15 00:43:34;;;;;;;113.38;35.58;;;;;;;8.26;97.53;102906.53;5046550;28;20072;-75
2021/12/15 00:46:00;;;;;;;113.30;35.03;;;;;;;8.27;97.67;102908.34;5043884;28;20033;-75
2021/12/15 00:48:26;;;;;;;115.90;33.85;;;;;;;8.26;97.67;102911.72;5047992;28;20037;-75
2021/12/15 00:50:51;;;;;;;107.20;33.58;;;;;;;8.27;97.42;102905.75;5053629;28;20009;-75
2021/12/15 00:53:17;;;;;;;112.80;33.30;;;;;;;8.27;97.34;102907.41;5044619;28;20037;-75
2021/12/15 00:55:43;;;;;;;116.63;34.97;;;;;;;8.27;97.58;102905.75;5047400;28;20013;-75
2021/12/15 00:58:09;;;;;;;113.13;34.67;;;;;;;8.26;97.34;102901.34;5052688;28;20032;-81
2021/12/15 01:00:39;;;;;;;114.38;33.47;;;;;;;8.26;97.46;102901.34;5048754;28;20029;-81
2021/12/15 01:03:05;;;;;;;108.18;32.83;;;;;;;8.27;97.45;102905.75;5047213;28;20032;-81
2021/12/15 01:05:35;;;;;;;111.03;33.92;;;;;;;8.26;97.47;102900.44;5050838;28;20033;-81
2021/12/15 01:08:03;;;;;;;112.22;32.50;;;;;;;8.26;97.59;102910.84;5043192;28;20179;-80
2021/12/15 01:10:42;;;;;;;104.20;32.92;;;;;;;8.26;97.40;102919.50;5045976;28;20020;-80
2021/12/15 01:21:10;;;;;;;106.72;33.53;;;;;;;8.26;97.36;102918.63;5050751;28;20064;-82
2021/12/15 01:23:36;;;;;;;103.80;31.92;;;;;;;8.26;97.54;102923.81;5046644;28;20048;-81
2021/12/15 01:26:09;;;;;;;109.05;31.73;;;;;;;8.27;97.60;102923.00;5055919;28;20153;-81
2021/12/15 01:28:35;;;;;;;107.35;31.83;;;;;;;8.25;97.37;102911.63;5045345;28;20020;-75
2021/12/15 01:31:02;;;;;;;108.13;32.10;;;;;;;8.25;97.57;102915.09;5047992;28;20045;-75
2021/12/15 01:33:28;;;;;;;110.00;33.35;;;;;;;8.24;97.84;102913.34;5044691;28;20013;-75
2021/12/15 01:35:57;;;;;;;106.30;31.75;;;;;;;8.26;97.45;102918.63;5047923;28;20037;-75
2021/12/15 01:38:30;;;;;;;110.43;34.30;;;;;;;8.26;97.48;102919.50;5043314;28;20013;-75
2021/12/15 01:40:56;;;;;;;110.93;33.15;;;;;;;8.25;97.49;102911.63;5050896;28;20084;-75
2021/12/15 01:43:48;;;;;;;111.15;33.00;;;;;;;8.25;97.49;102916.81;5048690;28;20013;-75
2021/12/15 01:49:06;;;;;;;109.60;32.88;;;;;;;8.24;97.66;102923.72;5045219;28;20075;-75
2021/12/15 01:51:32;;;;;;;105.60;31.52;;;;;;;8.24;97.46;102922.81;5047371;28;20025;-75
2021/12/15 01:53:58;;;;;;;106.80;32.30;;;;;;;8.24;97.44;102917.59;5047587;28;20017;-75
2021/12/15 01:56:23;;;;;;;110.32;32.35;;;;;;;8.24;97.66;102922.81;5056896;28;20052;-75
2021/12/15 01:58:49;;;;;;;107.95;33.00;;;;;;;8.25;97.72;102929.81;5047860;28;20055;-75
2021/12/15 02:01:15;;;;;;;119.07;33.50;;;;;;;8.25;97.63;102930.69;5047256;28;20021;-75
2021/12/15 02:03:41;;;;;;;108.57;32.33;;;;;;;8.25;97.57;102922.00;5043633;28;20267;-75
2021/12/15 02:06:08;;;;;;;112.97;32.20;;;;;;;8.25;97.52;102928.09;5047930;28;20075;-75
2021/12/15 02:08:34;;;;;;;111.95;32.60;;;;;;;8.25;97.65;102937.59;5046366;28;20259;-75
2021/12/15 02:10:59;;;;;;;114.95;32.90;;;;;;;8.25;97.46;102935.88;5050625;28;20084;-75
2021/12/15 02:13:25;;;;;;;112.90;34.08;;;;;;;8.24;97.61;102933.19;5052843;28;20090;-75
2021/12/15 02:15:53;;;;;;;105.78;32.25;;;;;;;8.25;97.50;102942.78;5043471;28;20272;-75
2021/12/15 02:18:21;;;;;;;113.18;32.65;;;;;;;8.24;97.45;102941.91;5051697;28;20100;-75
2021/12/15 02:21:27;;;;;;;121.10;34.70;;;;;;;8.25;97.66;102945.38;5053396;28;20789;-75
2021/12/15 02:23:56;;;;;;;114.03;31.30;;;;;;;8.26;97.43;102948.09;5011271;28;20128;-75
2021/12/15 02:26:25;;;;;;;121.10;31.77;;;;;;;8.26;97.62;102944.59;5040304;28;20081;-75
2021/12/15 02:28:54;;;;;;;113.10;32.35;;;;;;;8.26;97.50;102942.00;5043143;28;20263;-75
2021/12/15 02:31:40;;;;;;;108.63;32.00;;;;;;;8.26;97.38;102944.59;5049488;28;20088;-75
2021/12/15 02:37:18;;;;;;;112.65;32.85;;;;;;;8.26;97.58;102934.22;5034083;28;20176;-75
2021/12/15 02:39:48;;;;;;;102.53;30.80;;;;;;;8.25;97.60;102935.88;5049502;28;20025;-75
2021/12/15 02:42:14;;;;;;;117.85;32.80;;;;;;;8.26;97.62;102942.88;5043143;28;20037;-75
2021/12/15 02:44:41;;;;;;;111.53;33.22;;;;;;;8.24;97.65;102934.13;5046618;28;20091;-75
2021/12/15 02:47:08;;;;;;;119.13;33.40;;;;;;;8.24;97.21;102936.72;5049122;28;20235;-75
2021/12/15 02:49:34;;;;;;;107.32;31.90;;;;;;;8.26;97.65;102944.59;5053694;28;20087;-75
2021/12/15 02:52:00;;;;;;;129.18;33.80;;;;;;;8.26;97.57;102939.41;5053796;28;20025;-75
2021/12/15 02:54:26;;;;;;;114.10;32.10;;;;;;;8.26;97.53;102940.28;5049094;28;20059;-75
2021/12/15 02:56:53;;;;;;;118.47;33.20;;;;;;;8.26;97.58;102936.81;5055795;28;20014;-75
2021/12/15 02:59:29;;;;;;;113.45;32.72;;;;;;;8.25;97.49;102935.00;5046918;28;20044;-74
2021/12/15 03:02:06;;;;;;;119.35;34.25;;;;;;;8.27;97.64;102941.19;5055892;28;20047;-75
2021/12/15 03:04:44;;;;;;;114.43;32.35;;;;;;;8.25;97.43;102935.00;5057278;28;20067;-75
2021/12/15 03:07:18;;;;;;;110.30;31.83;;;;;;;8.27;97.71;102938.59;5050665;28;20014;-75
2021/12/15 03:17:52;;;;;;;100.70;30.98;;;;;;;8.28;97.51;102940.41;5051144;28;20032;-74
2021/12/15 03:20:19;;;;;;;109.38;31.13;;;;;;;8.27;97.43;102936.91;5034226;28;20026;-75
2021/12/15 03:22:44;;;;;;;111.93;31.95;;;;;;;8.29;97.60;102931.81;5040839;28;20014;-75
2021/12/15 03:25:10;;;;;;;110.70;31.60;;;;;;;8.28;97.79;102930.00;5047055;28;20037;-75
2021/12/15 03:36:01;;;;;;;106.35;31.52;;;;;;;8.28;97.66;102930.00;5046010;28;20043;-75
2021/12/15 03:38:28;;;;;;;117.00;30.93;;;;;;;8.27;98.02;102933.38;5050445;28;20226;-75
2021/12/15 03:40:54;;;;;;;107.82;30.60;;;;;;;8.26;97.82;102929.03;5048109;28;20276;-74
2021/12/15 03:43:21;;;;;;;111.03;30.70;;;;;;;8.26;97.91;102936.81;5051388;28;20029;-75
2021/12/15 03:45:53;;;;;;;109.60;30.52;;;;;;;8.26;97.96;102936.81;5053532;28;20025;-75
2021/12/15 03:48:23;;;;;;;104.93;29.83;;;;;;;8.26;97.65;102932.50;5053382;28;20048;-74
2021/12/15 03:50:48;;;;;;;;;;;;;;;8.32;97.50;102939.81;5050953;28;20039;-75
2021/12/15 03:53:15;;;;;;;103.63;28.40;;;;;;;8.28;97.63;102938.69;5054666;28;20123;-75
2021/12/15 03:55:42;;;;;;;114.15;31.15;;;;;;;8.28;97.86;102941.28;5054819;28;20056;-74
2021/12/15 03:58:11;;;;;;;111.90;30.83;;;;;;;8.27;97.87;102939.50;5046687;28;20029;-75
2021/12/15 04:00:40;;;;;;;105.05;29.80;;;;;;;8.27;97.74;102939.50;5045889;28;20166;-75
2021/12/15 04:03:05;;;;;;;103.35;29.40;;;;;;;8.28;97.94;102950.78;5044830;28;20092;-75
2021/12/15 04:05:31;;;;;;;99.22;28.58;;;;;;;8.28;97.96;102943.00;5048525;28;20052;-75
2021/12/15 04:07:57;;;;;;;114.30;29.83;;;;;;;8.28;97.81;102954.28;5046581;28;20052;-75
2021/12/15 04:10:25;;;;;;;96.97;28.70;;;;;;;8.29;97.97;102953.47;5053198;28;20017;-75
2021/12/15 04:12:52;;;;;;;112.07;30.40;;;;;;;8.29;97.97;102953.47;5052589;28;20040;-74
2021/12/15 04:17:49;;;;;;;105.00;27.75;;;;;;;8.29;97.93;102947.41;5048495;28;20242;-75
2021/12/15 04:20:18;;;;;;;105.68;29.58;;;;;;;8.30;97.87;102947.50;5050788;28;20025;-75
2021/12/15 04:22:44;;;;;;;102.20;29.40;;;;;;;8.31;97.65;102950.97;5045115;28;20021;-75
2021/12/15 04:25:13;;;;;;;95.60;29.45;;;;;;;8.31;97.82;102956.19;5043612;28;20029;-75
2021/12/15 04:27:49;;;;;;;99.95;29.42;;;;;;;8.32;97.56;102950.19;5054834;28;20017;-75
2021/12/15 04:30:15;;;;;;;98.47;28.98;;;;;;;8.32;97.67;102958.00;5049254;28;20009;-75
2021/12/15 04:32:44;;;;;;;100.07;29.33;;;;;;;8.33;97.73;102965.88;5052571;28;20020;-74
2021/12/15 04:35:11;;;;;;;96.78;29.08;;;;;;;8.33;97.56;102965.88;5051366;28;20025;-74
2021/12/15 04:37:37;;;;;;;98.05;28.00;;;;;;;8.33;97.77;102965.00;5049827;28;20049;-75
2021/12/15 04:40:06;;;;;;;97.00;29.08;;;;;;;8.32;97.67;102964.06;5047345;28;20044;-75
2021/12/15 04:42:32;;;;;;;96.10;28.20;;;;;;;8.32;97.66;102964.06;5048234;28;20044;-75
2021/12/15 04:44:57;;;;;;;89.03;27.17;;;;;;;8.33;97.85;102962.41;5052028;28;20084;-75
2021/12/15 04:47:24;;;;;;;96.75;29.50;;;;;;;8.32;97.74;102958.88;5047575;28;20229;-75
2021/12/15 04:49:52;;;;;;;92.43;27.10;;;;;;;8.33;97.87;102959.78;5050484;28;20021;-75
2021/12/15 04:52:20;;;;;;;91.97;28.52;;;;;;;8.34;97.68;102969.38;5054423;28;20076;-75
2021/12/15 04:54:47;;;;;;;89.75;27.45;;;;;;;8.34;97.49;102971.97;5047129;28;20084;-75
2021/12/15 04:57:15;;;;;;;86.57;27.08;;;;;;;8.33;97.64;102968.47;5047382;28;20010;-75
2021/12/15 04:59:41;;;;;;;91.88;28.20;;;;;;;8.34;97.87;102971.97;5046095;28;20033;-75
2021/12/15 05:02:08;;;;;;;95.25;28.63;;;;;;;8.34;97.68;102978.09;5047111;28;20093;-75
2021/12/15 05:04:34;;;;;;;92.35;26.50;;;;;;;8.34;97.57;102977.16;5051694;28;20013;-75
2021/12/15 05:07:00;;;;;;;95.00;27.30;;;;;;;8.33;97.51;102985.78;5050575;28;20089;-75
2021/12/15 05:09:26;;;;;;;94.35;27.48;;;;;;;8.33;97.79;102976.28;5048641;28;20202;-75
2021/12/15 05:11:53;;;;;;;92.43;27.40;;;;;;;8.34;97.52;102978.09;5048304;28;20012;-75
2021/12/15 05:14:19;;;;;;;97.28;26.92;;;;;;;8.35;97.51;102978.97;5056850;28;20075;-75
2021/12/15 05:16:45;;;;;;;90.40;27.40;;;;;;;8.34;97.77;102977.16;5048288;28;20087;-75
2021/12/15 05:19:10;;;;;;;88.93;26.13;;;;;;;8.34;97.70;102979.75;5052054;28;20028;-75
2021/12/15 05:21:36;;;;;;;90.00;25.55;;;;;;;8.35;97.69;102987.66;5048328;28;20294;-75
2021/12/15 05:24:11;;;;;;;85.28;27.90;;;;;;;8.34;97.81;102982.34;5047787;28;20021;-75
2021/12/15 05:26:37;;;;;;;87.80;25.30;;;;;;;8.36;97.61;102991.16;5047752;28;20044;-75
2021/12/15 05:29:02;;;;;;;89.85;27.00;;;;;;;8.34;97.67;102983.28;5046920;28;20037;-75
2021/12/15 05:31:27;;;;;;;88.38;26.92;;;;;;;8.35;97.66;102992.84;5049112;28;20314;-75
2021/12/15 05:33:53;;;;;;;91.40;27.13;;;;;;;8.34;97.44;102987.56;5048230;28;20021;-75
2021/12/15 05:36:18;;;;;;;87.95;26.23;;;;;;;8.34;97.45;102982.34;5049387;28;20029;-75
2021/12/15 05:38:44;;;;;;;98.55;26.33;;;;;;;8.33;97.48;102981.47;5048787;28;20029;-75
2021/12/15 05:41:09;;;;;;;83.30;25.15;;;;;;;8.34;97.66;102987.56;5054220;28;20017;-75
2021/12/15 05:43:35;;;;;;;90.45;25.02;;;;;;;8.34;97.81;102985.88;5050017;28;20128;-75
2021/12/15 05:46:00;;;;;;;89.95;27.20;;;;;;;8.34;97.52;102987.56;5043794;28;20049;-75
2021/12/15 05:48:25;;;;;;;91.88;26.75;;;;;;;8.34;97.67;102992.75;5052787;28;20032;-75
2021/12/15 05:50:51;;;;;;;90.80;26.85;;;;;;;8.32;97.58;102990.03;5048864;28;20028;-75
2021/12/15 05:53:17;;;;;;;86.82;26.45;;;;;;;8.33;97.49;102989.25;5051874;28;20021;-75
2021/12/15 05:55:44;;;;;;;95.32;27.50;;;;;;;8.33;97.79;102990.97;5049226;28;20295;-75
2021/12/15 05:58:09;;;;;;;101.35;26.27;;;;;;;8.33;97.85;102991.84;5040435;28;20158;-75
2021/12/15 06:00:38;;;;;;;90.63;26.88;;;;;;;8.33;97.70;102986.66;5044375;28;20033;-75
2021/12/15 06:03:04;;;;;;;86.25;25.88;;;;;;;8.33;97.61;102993.56;5052277;28;20028;-75
2021/12/15 06:05:30;;;;;;;101.38;27.55;;;;;;;8.32;97.78;102994.34;5044799;28;20036;-75
2021/12/15 06:07:56;;;;;;;99.50;27.27;;;;;;;8.33;97.47;102998.75;5044285;28;20084;-75
2021/12/15 06:10:24;;;;;;;94.95;25.77;;;;;;;8.33;97.95;102996.16;5044951;28;20013;-75
2021/12/15 06:12:51;;;;;;;92.05;26.38;;;;;;;8.34;97.58;103000.53;5043062;28;20024;-75
2021/12/15 06:15:23;;;;;;;97.55;27.80;;;;;;;8.33;97.83;103001.34;5043669;28;20093;-75
2021/12/15 06:17:57;;;;;;;93.70;26.88;;;;;;;8.33;97.85;102996.16;5043854;28;20092;-75
2021/12/15 06:20:23;;;;;;;94.53;27.45;;;;;;;8.33;97.69;102996.16;5053163;28;20075;-74
2021/12/15 06:22:52;;;;;;;102.82;27.05;;;;;;;8.34;97.75;103003.13;5051915;28;20020;-75
2021/12/15 06:25:17;;;;;;;97.17;27.30;;;;;;;8.33;97.64;103003.94;5048995;28;20315;-74
2021/12/15 06:27:42;;;;;;;98.25;27.60;;;;;;;8.34;97.84;103008.31;5052422;28;20024;-74
2021/12/15 06:30:09;;;;;;;93.10;26.98;;;;;;;8.33;97.76;103011.75;5051363;28;20037;-75
2021/12/15 06:32:34;;;;;;;105.82;27.33;;;;;;;8.33;97.82;103012.63;5050140;28;20278;-75
2021/12/15 06:35:00;;;;;;;101.65;28.00;;;;;;;8.33;97.60;103009.16;5052290;28;20275;-75
2021/12/15 06:37:25;;;;;;;100.38;27.42;;;;;;;8.33;97.57;103017.84;5054782;28;20152;-75
2021/12/15 06:39:50;;;;;;;99.95;28.33;;;;;;;8.34;97.94;103009.25;5052111;28;20063;-75
2021/12/15 06:42:16;;;;;;;107.35;29.30;;;;;;;8.33;97.70;103007.44;5049877;28;20252;-75
2021/12/15 06:44:41;;;;;;;102.00;27.23;;;;;;;8.33;98.01;103014.34;5052341;28;20009;-75
2021/12/15 07:00:36;;;;;;;114.22;30.20;;;;;;;8.34;97.84;103018.72;5039136;28;20029;-75
2021/12/15 07:03:02;;;;;;;105.82;28.88;;;;;;;8.34;97.85;103018.72;5043619;28;20088;-75
2021/12/15 07:05:31;;;;;;;107.10;28.33;;;;;;;8.35;97.90;103020.53;5048593;28;20026;-75
2021/12/15 07:07:57;;;;;;;116.63;30.13;;;;;;;8.34;97.89;103030.03;5047625;28;20021;-75
2021/12/15 07:10:27;;;;;;;109.93;28.77;;;;;;;8.34;97.99;103031.72;5054496;28;20063;-75
2021/12/15 07:12:52;;;;;;;111.97;29.40;;;;;;;8.35;98.06;103033.50;5045798;28;20021;-75
2021/12/15 07:15:18;;;;;;;111.85;29.58;;;;;;;8.36;98.04;103043.13;5055814;28;20085;-75
2021/12/15 07:17:47;;;;;;;112.72;29.75;;;;;;;8.37;97.92;103044.91;5055026;28;20063;-75
2021/12/15 07:23:00;;;;;;;112.38;29.00;;;;;;;8.37;98.08;103042.31;5047980;28;20214;-75
2021/12/15 07:25:27;;;;;;;119.95;29.90;;;;;;;8.38;97.98;103049.31;5047412;28;20050;-75
2021/12/15 07:27:53;;;;;;;120.22;29.58;;;;;;;8.38;98.06;103044.13;5053544;28;20020;-74
2021/12/15 07:30:19;;;;;;;115.55;29.25;;;;;;;8.38;98.09;103044.13;5049925;28;20076;-75
2021/12/15 07:32:44;;;;;;;110.88;29.85;;;;;;;8.38;98.21;103046.72;5050288;28;20021;-75
2021/12/15 07:35:11;;;;;;;118.57;29.85;;;;;;;8.38;98.09;103041.50;5048656;28;20028;-75
2021/12/15 07:37:37;;;;;;;133.15;33.22;;;;;;;8.39;98.28;103053.72;5046099;28;20025;-75
2021/12/15 07:40:11;;;;;;;113.47;29.60;;;;;;;8.39;98.18;103053.72;5055628;28;20027;-74
2021/12/15 07:42:43;;;;;;;121.60;30.30;;;;;;;8.40;98.23;103047.72;5052828;28;20017;-74
2021/12/15 07:45:10;;;;;;;123.20;31.63;;;;;;;8.40;98.21;103054.59;5045989;28;20033;-74
2021/12/15 07:47:36;;;;;;;121.85;31.02;;;;;;;8.40;98.14;103054.59;5053976;28;20009;-74
2021/12/15 07:50:03;;;;;;;125.45;31.17;;;;;;;8.41;98.30;103057.31;5051279;28;20256;-74
2021/12/15 07:52:29;;;;;;;122.20;30.52;;;;;;;8.40;98.19;103052.00;5048290;28;20168;-74
2021/12/15 07:54:55;;;;;;;122.78;31.27;;;;;;;8.40;98.15;103060.72;5046438;28;20036;-74
2021/12/15 07:57:23;;;;;;;115.40;29.27;;;;;;;8.41;98.20;103061.63;5051050;28;20020;-74
2021/12/15 07:59:50;;;;;;;121.25;31.80;;;;;;;8.41;98.31;103062.50;5049487;28;20028;-74
2021/12/15 08:02:15;;;;;;;128.77;31.38;;;;;;;8.42;98.48;103066.03;5049975;28;20030;-74
2021/12/15 08:04:41;;;;;;;125.57;31.70;;;;;;;8.42;98.50;103059.13;5043970;28;20038;-74
2021/12/15 08:07:06;;;;;;;129.23;31.98;;;;;;;8.42;98.22;103048.72;5044356;28;20093;-74
2021/12/15 08:09:32;;;;;;;124.30;30.67;;;;;;;8.42;98.14;103064.31;5047134;28;20025;-74
2021/12/15 08:11:57;;;;;;;127.38;32.13;;;;;;;8.43;98.22;103066.13;5041088;28;20079;-74
2021/12/15 08:14:22;;;;;;;135.55;35.20;;;;;;;8.45;98.30;103066.25;5048486;28;20021;-74
2021/12/15 08:16:48;;;;;;;126.68;31.45;;;;;;;8.44;98.13;103070.53;5044378;28;20075;-74
2021/12/15 08:19:16;;;;;;;114.90;31.75;;;;;;;8.44;98.35;103067.94;5043869;28;20319;-74
2021/12/15 08:21:42;;;;;;;128.40;32.55;;;;;;;8.44;98.31;103072.22;5046099;28;20202;-74
2021/12/15 08:24:07;;;;;;;130.02;31.98;;;;;;;8.44;98.29;103083.53;5046781;28;20028;-74
2021/12/15 08:26:33;;;;;;;139.82;32.95;;;;;;;8.44;98.25;103073.13;5056531;28;20036;-74
2021/12/15 08:28:58;;;;;;;124.70;32.45;;;;;;;8.45;98.39;103072.34;5047520;28;20021;-74
2021/12/15 08:31:24;;;;;;;132.10;32.47;;;;;;;8.46;98.32;103073.28;5038609;28;20280;-74
2021/12/15 08:33:49;;;;;;;129.93;31.73;;;;;;;8.46;98.15;103076.75;5045958;28;20035;-75
2021/12/15 08:36:16;;;;;;;127.38;33.05;;;;;;;8.46;98.32;103073.28;5041450;28;20029;-75
2021/12/15 08:38:45;;;;;;;130.88;32.72;;;;;;;8.48;98.20;103069.94;5046163;28;20029;-75
2021/12/15 08:41:14;;;;;;;128.23;33.58;;;;;;;8.48;98.20;103069.06;5048784;28;20013;-74
2021/12/15 08:43:40;;;;;;;131.77;33.25;;;;;;;8.48;98.26;103072.56;5054748;28;20041;-74
2021/12/15 08:46:11;;;;;;;132.43;33.15;;;;;;;8.49;98.02;103076.97;5056914;28;20025;-75
2021/12/15 08:48:39;;;;;;;136.73;33.63;;;;;;;8.49;98.14;103076.97;5064416;28;20021;-74
2021/12/15 08:51:06;;;;;;;125.18;32.72;;;;;;;8.51;98.31;103079.66;5055617;28;20271;-74
2021/12/15 08:53:33;;;;;;;126.68;32.72;;;;;;;8.52;98.01;103076.28;5053195;28;20100;-75
2021/12/15 08:55:58;;;;;;;139.45;34.97;;;;;;;8.52;98.10;103071.97;5064306;28;20086;-75
2021/12/15 08:58:24;;;;;;;132.80;33.47;;;;;;;8.52;98.24;103084.97;5064071;28;20021;-75
2021/12/15 09:00:53;;;;;;;126.00;32.42;;;;;;;8.53;98.20;103091.97;5054832;28;20021;-75
2021/12/15 09:03:20;;;;;;;126.35;33.17;;;;;;;8.54;98.32;103087.66;5036514;28;20037;-74
2021/12/15 09:05:47;;;;;;;124.38;32.10;;;;;;;8.55;98.10;103086.00;5058197;28;20027;-74
2021/12/15 09:08:13;;;;;;;128.18;33.85;;;;;;;8.55;98.24;103084.28;5063573;28;20092;-75
2021/12/15 09:10:43;;;;;;;129.30;32.72;;;;;;;8.56;98.16;103088.69;5062112;28;20021;-75
2021/12/15 09:13:09;;;;;;;131.30;33.20;;;;;;;8.58;98.04;103092.28;5050104;28;20032;-75
2021/12/15 09:15:34;;;;;;;130.70;33.90;;;;;;;8.58;98.28;103101.78;5053366;28;20076;-75
2021/12/15 09:18:00;;;;;;;130.13;33.60;;;;;;;8.59;98.37;103091.50;5061160;28;20017;-75
2021/12/15 09:20:28;;;;;;;131.77;33.75;;;;;;;8.61;98.30;103094.19;5063048;28;20282;-75
2021/12/15 09:22:53;;;;;;;121.25;33.05;;;;;;;8.61;98.09;103101.97;5063725;28;20017;-74
2021/12/15 09:25:19;;;;;;;129.50;33.00;;;;;;;8.62;98.48;103101.19;5052633;28;20031;-75
2021/12/15 09:27:46;;;;;;;127.80;34.42;;;;;;;8.64;98.11;103109.97;5047655;28;20305;-75
2021/12/15 09:30:20;;;;;;;126.70;34.13;;;;;;;8.65;98.16;103117.00;5062266;28;20016;-75
2021/12/15 09:32:46;;;;;;;125.38;33.40;;;;;;;8.65;98.12;103130.00;5063281;28;20035;-75
2021/12/15 09:35:14;;;;;;;131.32;32.35;;;;;;;8.66;98.09;103118.78;5063589;28;20171;-75
2021/12/15 09:37:40;;;;;;;133.30;34.40;;;;;;;8.66;98.22;103106.69;5049850;28;20033;-75
2021/12/15 09:40:09;;;;;;;129.98;34.83;;;;;;;8.69;98.16;103121.59;5063021;28;20017;-75
2021/12/15 09:42:38;;;;;;;131.32;33.55;;;;;;;8.69;98.22;103112.09;5063561;28;20037;-75
2021/12/15 10:07:05;;;;;;;126.18;35.55;;;;;;;8.86;97.98;103115.84;5067375;28;20032;-75
2021/12/15 10:17:27;;;;;;;140.40;36.55;;;;;;;8.95;97.60;103122.44;5055243;28;20180;-63
2021/12/15 10:20:00;;;;;;;126.32;33.45;;;;;;;8.98;97.85;103120.03;5047739;28;20267;-64
2021/12/15 10:22:40;;;;;;;123.40;33.67;;;;;;;8.99;97.99;103120.19;5061260;28;20026;-63
2021/12/15 10:25:24;;;;;;;123.45;35.08;;;;;;;9.02;97.72;103128.19;5063109;28;20172;-63
2021/12/15 10:28:04;;;;;;;124.72;35.67;;;;;;;9.05;97.61;103122.25;5056989;28;20267;-64
2021/12/15 10:30:34;;;;;;;127.15;34.05;;;;;;;9.08;97.77;103122.50;5064081;28;20040;-63
2021/12/15 10:33:06;;;;;;;131.10;35.80;;;;;;;9.11;97.59;103127.88;5061056;28;20016;-63
2021/12/15 10:35:40;;;;;;;129.20;35.35;;;;;;;9.13;97.44;103123.69;5066555;28;20036;-63
2021/12/15 10:38:28;;;;;;;120.85;34.75;;;;;;;9.15;97.56;103114.28;5049456;28;20056;-63
2021/12/15 10:41:12;;;;;;;124.57;36.67;;;;;;;9.17;97.53;103117.88;5055184;28;20049;-63
2021/12/15 10:43:45;;;;;;;121.50;35.15;;;;;;;9.19;97.22;103120.59;5067018;28;20067;-64
2021/12/15 10:46:28;;;;;;;127.38;35.05;;;;;;;9.21;97.28;103117.28;5061286;28;20024;-63
2021/12/15 10:48:53;;;;;;;119.97;34.60;;;;;;;9.22;97.61;103126.91;5053744;28;20095;-63
2021/12/15 10:51:27;;;;;;;126.78;35.45;;;;;;;9.24;97.13;103124.41;5059574;28;20033;-63
2021/12/15 10:53:55;;;;;;;129.25;36.50;;;;;;;9.25;97.19;103128.78;5066474;28;20024;-64
2021/12/15 10:56:26;;;;;;;128.18;36.60;;;;;;;9.28;97.22;103141.09;5065930;28;20341;-64
2021/12/15 10:58:59;;;;;;;116.45;33.92;;;;;;;9.28;96.84;103133.28;5066984;28;20256;-64
2021/12/15 11:01:44;;;;;;;128.27;37.28;;;;;;;9.29;97.22;103127.31;5066291;28;20051;-63
2021/12/15 11:04:30;;;;;;;120.60;35.78;;;;;;;9.31;97.04;103131.81;5062421;28;20024;-63
2021/12/15 11:07:12;;;;;;;124.40;36.22;;;;;;;9.33;97.00;103138.00;5066006;28;20021;-64
2021/12/15 11:09:55;;;;;;;127.07;35.90;;;;;;;9.33;97.03;103126.72;5066486;28;20027;-64
2021/12/15 11:12:41;;;;;;;120.63;36.65;;;;;;;9.34;96.96;103126.81;5066162;28;20171;-63
2021/12/15 11:15:12;;;;;;;121.63;34.55;;;;;;;9.36;96.97;103125.19;5052781;28;20017;-64
2021/12/15 11:18:02;;;;;;;123.50;35.55;;;;;;;9.37;96.99;103123.47;5065883;28;20087;-63
2021/12/15 11:20:31;;;;;;;126.50;36.03;;;;;;;9.39;96.97;103124.50;5042450;28;20260;-63
2021/12/15 11:23:08;;;;;;;125.70;37.45;;;;;;;9.39;96.72;103121.91;5063853;28;20047;-63
2021/12/15 11:25:39;;;;;;;126.55;36.70;;;;;;;9.41;96.51;103115.06;5066262;28;20016;-63
2021/12/15 11:28:27;;;;;;;120.05;36.38;;;;;;;9.44;96.80;103119.59;5058433;28;20048;-63
2021/12/15 11:31:01;;;;;;;126.55;37.75;;;;;;;9.46;96.68;103117.97;5050749;28;20009;-64
2021/12/15 11:33:34;;;;;;;121.15;37.25;;;;;;;9.48;96.40;103119.00;5065140;28;20083;-63
2021/12/15 11:36:07;;;;;;;131.95;37.45;;;;;;;9.47;96.15;103118.09;5061810;28;20236;-63
2021/12/15 11:38:37;;;;;;;117.63;36.80;;;;;;;9.49;96.23;103111.28;5065031;28;20044;-63
2021/12/15 11:41:07;;;;;;;131.40;36.95;;;;;;;9.51;96.29;103116.59;5061457;28;20032;-63
2021/12/15 11:43:41;;;;;;;122.43;37.90;;;;;;;9.51;95.90;103114.88;5065190;28;20070;-63
2021/12/15 11:46:17;;;;;;;111.60;34.72;;;;;;;9.53;95.87;103117.56;5063828;28;20173;-64
2021/12/15 11:48:47;;;;;;;114.13;36.70;;;;;;;9.54;95.86;103112.50;5065520;28;20047;-63
2021/12/15 11:51:13;;;;;;;112.88;36.15;;;;;;;9.56;95.49;103108.28;5065299;28;20029;-64
2021/12/15 11:53:44;;;;;;;113.22;35.30;;;;;;;9.57;95.33;103115.28;5064269;28;20183;-63
2021/12/15 11:56:17;;;;;;;109.50;35.42;;;;;;;9.59;95.50;103112.78;5048462;28;20049;-76
2021/12/15 11:58:43;;;;;;;109.13;34.83;;;;;;;9.61;95.64;103110.28;5045875;28;20049;-76
2021/12/15 12:01:09;;;;;;;118.55;36.20;;;;;;;9.62;95.34;103112.97;5050687;28;20214;-77
2021/12/15 12:11:39;;;;;;;102.00;33.88;;;;;;;9.64;94.86;103106.16;5062988;23;20055;-73
2021/12/15 12:14:07;;;;;;;113.05;34.92;;;;;;;9.67;94.99;103100.25;4990679;28;20038;-73
2021/12/15 12:16:32;;;;;;;104.43;34.10;;;;;;;9.69;95.13;103098.63;4954546;28;20023;-73
2021/12/15 12:18:58;;;;;;;104.88;34.75;;;;;;;9.69;94.68;103093.41;4975789;28;20493;-73
2021/12/15 12:21:24;;;;;;;101.28;34.03;;;;;;;9.71;94.74;103095.31;4965324;28;20038;-73
2021/12/15 12:23:50;;;;;;;101.25;35.38;;;;;;;9.72;94.81;103094.53;4970099;28;20022;-73
2021/12/15 12:26:17;;;;;;;103.47;34.80;;;;;;;9.74;94.76;103094.63;4970000;28;20019;-73
2021/12/15 12:28:45;;;;;;;105.15;34.63;;;;;;;9.75;94.45;103091.22;4972687;28;21159;-73
2021/12/15 12:31:18;;;;;;;100.75;33.30;;;;;;;9.77;94.53;103097.41;4971923;28;20037;-73
2021/12/15 12:33:44;;;;;;;100.00;33.78;;;;;;;9.77;94.44;103091.31;4972902;28;20018;-74
2021/12/15 12:36:11;;;;;;;97.30;32.78;;;;;;;9.78;94.37;103091.41;4970028;28;20069;-74
2021/12/15 12:38:46;;;;;;;95.78;33.35;;;;;;;9.78;94.34;103085.31;4972407;28;20038;-74
2021/12/15 12:41:20;;;;;;;90.07;32.60;;;;;;;9.79;93.84;103088.03;4970139;28;20030;-74
2021/12/15 12:43:48;;;;;;;94.30;33.22;;;;;;;9.80;93.78;103086.31;4972814;28;20030;-74
2021/12/15 12:46:25;;;;;;;88.05;32.85;;;;;;;9.81;93.36;103085.50;4971550;28;20023;-73